createdAt,value
2022-11-30T06:16:31.761Z,3.57
2022-11-30T06:26:31.733Z,3.57
2022-11-30T06:36:35.764Z,3.57
2022-11-30T06:46:31.758Z,3.56
2022-11-30T06:56:31.827Z,3.58
2022-11-30T07:06:31.765Z,3.58
2022-11-30T07:16:31.819Z,3.59
2022-11-30T07:26:31.934Z,3.60
2022-11-30T07:36:31.975Z,3.63
2022-11-30T07:46:31.820Z,3.64
2022-11-30T07:56:31.937Z,3.68
2022-11-30T08:06:31.833Z,3.70
2022-11-30T08:16:32.096Z,3.73
2022-11-30T08:26:31.789Z,3.78
2022-11-30T08:36:31.965Z,3.80
2022-11-30T08:46:51.552Z,3.88
2022-11-30T08:56:32.090Z,3.93
2022-11-30T09:06:31.975Z,3.89
2022-11-30T09:16:32.010Z,3.95
2022-11-30T09:26:32.077Z,3.98
2022-11-30T09:36:32.149Z,3.98
2022-11-30T09:46:32.038Z,3.96
2022-11-30T09:56:31.858Z,4.02
2022-11-30T10:06:32.040Z,4.02
2022-11-30T10:16:32.068Z,4.00
2022-11-30T10:26:31.959Z,4.02
2022-11-30T10:36:32.027Z,4.04
2022-11-30T10:46:32.204Z,4.01
2022-11-30T10:56:32.067Z,4.06
2022-11-30T11:06:32.152Z,4.10
2022-11-30T11:16:32.121Z,4.04
2022-11-30T11:26:32.039Z,4.10
2022-11-30T11:36:31.999Z,4.06
2022-11-30T11:46:32.289Z,4.10
2022-11-30T11:56:31.927Z,4.08
2022-11-30T12:06:32.092Z,4.03
2022-11-30T12:16:32.269Z,4.12
2022-11-30T12:26:32.014Z,4.06
2022-11-30T12:36:32.174Z,4.01
2022-11-30T12:46:32.073Z,4.00
2022-11-30T12:56:32.205Z,3.97
2022-11-30T13:06:31.974Z,3.99
2022-11-30T13:16:32.116Z,4.02
2022-11-30T13:26:32.158Z,3.99
2022-11-30T13:36:32.157Z,4.00
2022-11-30T13:46:32.180Z,4.02
2022-11-30T13:56:31.985Z,4.01
2022-11-30T14:06:32.070Z,4.01
2022-11-30T14:16:32.177Z,3.99
2022-11-30T14:26:31.930Z,4.00
2022-11-30T14:36:32.172Z,4.01
2022-11-30T14:46:32.115Z,3.98
2022-11-30T14:56:32.076Z,3.93
2022-11-30T15:06:32.159Z,3.94
2022-11-30T15:16:32.011Z,3.91
2022-11-30T15:26:32.380Z,3.92
2022-11-30T15:36:33.498Z,3.91
2022-11-30T15:46:32.377Z,3.91
2022-11-30T15:56:32.178Z,3.93
2022-11-30T16:06:32.224Z,3.98
2022-11-30T16:16:32.305Z,3.97
2022-11-30T16:36:32.055Z,3.84
2022-11-30T16:46:32.405Z,3.84
2022-11-30T16:56:32.243Z,3.84
2022-11-30T17:06:32.199Z,3.86
2022-11-30T17:16:32.067Z,3.82
2022-11-30T17:26:32.438Z,3.83
2022-11-30T17:36:32.372Z,3.79
2022-11-30T17:46:32.177Z,3.76
2022-11-30T17:56:32.249Z,3.77
2022-11-30T18:06:32.402Z,3.77
2022-11-30T18:16:32.312Z,3.74
2022-11-30T18:26:32.276Z,3.71
2022-11-30T18:36:32.470Z,3.66
2022-11-30T18:46:32.743Z,3.64
2022-11-30T18:56:32.626Z,3.59
2022-11-30T19:06:32.885Z,3.61
2022-11-30T19:16:32.907Z,3.54
